Home > Products > Valid Products > TAF

000
FTUS41 KLWX 260800 AAA
TAFDCA
TAF AMD
KDCA 260807Z 2608/2706 05009KT P6SM -RA FEW045 OVC060
     FM261600 04010KT 5SM -RASN OVC030
     FM262100 03011G21KT 2SM -SN OVC008
     FM270000 36015G25KT 1SM -SN OVC010=



000
FTUS41 KLWX 260800 AAA
TAFBWI
TAF AMD
KBWI 260805Z 2608/2712 06012KT 6SM -RA BR OVC045
     FM261000 07011G19KT 1SM -RASN OVC010
     FM262000 04012G18KT 2SM -SN OVC008
     FM262300 04015G25KT 3/4SM -SN OVC008=



000
FTUS41 KLWX 260500 RRA
TAFMRB
TAF
KMRB 260542Z 2606/2706 01006KT 3SM -RASN BR OVC005
     FM260700 06007KT 2SM -SN OVC008
     FM261400 06007KT 1/2SM SN OVC008
     FM262300 02007KT 1SM -SN OVC010
     FM270500 34007KT P6SM OVC010=



000
FTUS41 KLWX 260500 RRA
TAFCHO
TAF
KCHO 260542Z 2606/2706 07003KT P6SM OVC110
     FM260800 VRB03KT 3SM -RA OVC040
     FM261100 06004KT 1SM RASN OVC010
     FM262000 02006KT 1/2SM RASN OVC008
     FM270000 36007KT P6SM OVC010=



000
FTUS41 KLWX 260500 RRA
TAFDCA
TAF
KDCA 260542Z 2606/2706 15003KT P6SM OVC050
     FM260800 07007KT 3SM -RASN OVC035
     FM262300 03011G21KT 2SM -SN OVC008
     FM270300 01009KT 3SM -SN OVC010=



000
FTUS41 KLWX 260500 RRA
TAFIAD
TAF
KIAD 260542Z 2606/2712 15005KT P6SM OVC045
     FM260800 10008KT 3SM -RASN OVC025
     FM261100 08010KT 1SM -SNRA OVC010
     FM261400 07009KT 3/4SM -SN OVC008
     FM262000 02009KT 2SM -SN OVC008
     FM270800 33010G20KT 5SM -SN OVC008
     FM271100 33010G20KT P6SM OVC008=



000
FTUS41 KLWX 260500 RRA
TAFBWI
TAF
KBWI 260542Z 2606/2712 07010KT P6SM OVC050
     FM260800 07010KT 1SM -SNRA OVC020
     FM261100 07011G19KT 1SM -SN OVC010
     FM262000 04010KT 2SM -SNRA OVC008
     FM262300 04014G26KT 2SM -SN OVC008=



000
FTUS41 KLWX 260500 RRA
TAFMTN
TAF
KMTN 260542Z 2606/2706 NIL=



000
FTUS41 KLWX 260500 AAC
TAFMRB
TAF AMD
KMRB 260518Z 2605/2624 36006KT P6SM OVC008
     FM260600 06007KT 3SM -SNRA OVC008
     FM261000 06007KT 1/2SM SN OVC008
     FM262300 02007KT 3/4SM -SN OVC010=



000
FTUS41 KLWX 260500 AAB
TAFCHO
TAF AMD
KCHO 260517Z 2605/2624 07003KT P6SM OVC110
     FM261100 06004KT 1/2SM RASN OVC020
     FM261400 05005KT 1SM -RASN OVC008
     FM261500 04006KT 1SM -RASN OVC003
     FM261800 03006KT 2SM -RASN OVC008
     FM262000 02006KT 1/2SM RASN OVC008
     FM262300 01006KT P6SM OVC008=



000
FTUS41 KLWX 260500 AAB
TAFBWI
TAF AMD
KBWI 260516Z 2605/2706 07010KT P6SM OVC050
     FM260800 07010KT 3SM -SNRA OVC020
     FM261100 07011G19KT 1SM -SN OVC010
     FM261700 05010KT 2SM -RASN OVC008
     FM262000 04010KT 2SM -SNRA OVC008
     FM262300 04014G26KT 2SM -SN OVC008
     FM270500 36011G20KT 3SM -SN OVC008=



000
FTUS41 KLWX 260500 AAB
TAFDCA
TAF AMD
KDCA 260515Z 2605/2624 15003KT P6SM OVC050
     FM260800 07007KT 2SM -RASN OVC035
     FM261100 07009KT 1SM -RASN OVC015
     FM261700 05009KT 2SM -RA OVC008
     FM262000 04009KT 2SM -RASN OVC008
     FM262300 03011G21KT 2SM -SN OVC008=



000
FTUS41 KLWX 260500 AAB
TAFIAD
TAF AMD
KIAD 260515Z 2605/2706 15005KT P6SM OVC045
     FM260800 10008KT 2SM -RASN OVC025
     FM261100 08010KT 1SM -SNRA OVC010
     FM261400 07009KT 3/4SM -SN OVC008
     FM261700 05008KT 1SM -RASN OVC003
     FM262000 03008KT 1SM -SN OVC008
     FM262300 02009KT 2SM -SN OVC008=



000
FTUS41 KLWX 260300 AAB
TAFMRB
TAF AMD
KMRB 260318Z 2603/2624 36006KT 3SM -SNRA OVC015
     FM260800 06007KT 2SM -SN OVC008
     FM261400 06007KT 1/2SM SN OVC008
     FM262300 02007KT 3/4SM -SN OVC010=



000
FTUS41 KLWX 260200 AAA
TAFCHO
TAF AMD
KCHO 260234Z 2603/2624 00000KT P6SM BKN070
     FM260500 00000KT 3SM -RA OVC050
     FM261100 06004KT 1/2SM RASN OVC020
     FM261400 05005KT 1SM -RASN OVC008
     FM261500 04006KT 1SM -RASN OVC003
     FM261800 03006KT 2SM -RASN OVC008
     FM262000 02006KT 1/2SM RASN OVC008
     FM262300 01006KT P6SM OVC008=



000
FTUS41 KLWX 260200 AAA
TAFBWI
TAF AMD
KBWI 260234Z 2603/2706 07007KT 6SM -RA OVC035
     FM260500 07009KT 3SM -RASN OVC025
     FM260800 07010KT 1SM -SNRA OVC020
     FM261100 07011G19KT 1SM -SN OVC010
     FM261700 05010KT 2SM -RASN OVC008
     FM262000 04010KT 2SM -SNRA OVC008
     FM262300 04014G26KT 2SM -SN OVC008
     FM270500 36011G20KT 3SM -SN OVC008=



000
FTUS41 KLWX 260200 AAA
TAFDCA
TAF AMD
KDCA 260234Z 2603/2624 09004KT P6SM OVC060
     FM260500 08005KT 3SM -RA OVC045
     FM260800 07007KT 2SM -RASN OVC035
     FM261100 07009KT 1SM -RASN OVC015
     FM261700 05009KT 2SM -RA OVC008
     FM262000 04009KT 2SM -RASN OVC008
     FM262300 03011G21KT 2SM -SN OVC008=



000
FTUS41 KLWX 260200 AAA
TAFMRB
TAF AMD
KMRB 260234Z 2603/2624 07006KT 5SM -RASN OVC045
     FM260500 06006KT 3SM -SNRA OVC015
     FM260800 06007KT 2SM -SN OVC008
     FM261400 06007KT 1/2SM SN OVC008
     FM262300 02007KT 3/4SM -SN OVC010=



000
FTUS41 KLWX 260200 AAA
TAFIAD
TAF AMD
KIAD 260234Z 2603/2706 09006KT P6SM -RA OVC050
     FM260500 10007KT 3SM -RA OVC030
     FM260800 10008KT 2SM -RASN OVC025
     FM261100 08010KT 1SM -SNRA OVC010
     FM261400 07009KT 3/4SM -SN OVC008
     FM261700 05008KT 1SM -RASN OVC003
     FM262000 03008KT 1SM -SN OVC008
     FM262300 02009KT 2SM -SN OVC008=



000
FTUS41 KLWX 252300
TAFMTN
TAF
KMTN 252320Z 2600/2624 00000KT P6SM BKN080
     FM260200 07006KT 3SM -RASN OVC050
     FM260500 07010KT 3SM -RASN OVC025
     FM260800 07011KT 1SM -SNRA OVC015
     FM261100 07012KT 1SM -SN OVC010
     FM261700 05012KT 2SM -SNRA OVC008
     FM262300 03013KT 2SM -SN OVC008
      AMD NOT SKED 2602/2612=



000
FTUS41 KLWX 252300
TAFBWI
TAF
KBWI 252320Z 2600/2706 00000KT P6SM BKN070
     FM260200 06006KT 3SM -RA OVC050
     FM260500 07009KT 2SM -RASN OVC025
     FM260800 07010KT 1SM -SNRA OVC020
     FM261100 07011G19KT 1SM -SN OVC010
     FM261700 05010KT 2SM -RASN OVC008
     FM262000 04010G18KT 2SM -SNRA OVC008
     FM262300 03012KT 2SM -SN OVC008
     FM270500 35010KT 3SM -SN OVC008=



000
FTUS41 KLWX 252300
TAFCHO
TAF
KCHO 252320Z 2600/2624 VRB03KT P6SM BKN250
     FM260500 00000KT 3SM -RA OVC050
     FM261100 06004KT 1/2SM RASN OVC020
     FM261400 05005KT 1SM -RASN OVC008
     FM261500 04006KT 1SM -RASN OVC003
     FM261800 03006KT 2SM -RASN OVC008
     FM262000 02007KT 1/2SM RASN OVC008
     FM262300 01007KT P6SM OVC008=



000
FTUS41 KLWX 252300
TAFIAD
TAF
KIAD 252320Z 2600/2706 VRB03KT P6SM BKN060
     FM260200 09005KT 5SM -RA OVC040
     FM260500 10007KT 3SM -RA OVC020
     FM260800 10008KT 2SM -RASN OVC025
     FM261100 08010KT 1SM -SNRA OVC010
     FM261400 07009KT 3/4SM -SN OVC008
     FM261700 05008KT 1SM -SNRA OVC003
     FM262000 03008KT 1SM -SN OVC008
     FM262300 01009KT 2SM -SN OVC008=



000
FTUS41 KLWX 252300
TAFMRB
TAF
KMRB 252320Z 2600/2624 05004KT 4SM -RASN OVC040
     FM260200 06005KT 2SM -RASN OVC015
     FM260500 06006KT 2SM -SNRA OVC008
     FM260800 06007KT 2SM -SN OVC008
     FM261400 06007KT 1/2SM SN OVC008
     FM262300 01008KT 3/4SM -SN OVC010=



000
FTUS41 KLWX 252300
TAFDCA
TAF
KDCA 252320Z 2600/2624 VRB03KT P6SM BKN100
     FM260500 08005KT 3SM -RA OVC050
     FM261000 07009KT 2SM -RA OVC015
     FM261100 07009KT 1SM -RASN OVC015
     FM261700 05009KT 2SM -RA OVC008
     FM262000 04009KT 2SM -RASN OVC008
     FM262300 02010KT 2SM -SN OVC008=



000
FTUS41 KLWX 252100 AAA
TAFBWI
TAF AMD
KBWI 252100Z 2521/2624 28006KT P6SM OVC120
     FM252300 03004KT P6SM OVC060
     FM260200 09008KT 5SM -RASN OVC030
     FM260800 07009KT 3SM -SN BKN007 OVC015
     FM261400 06009KT 1SM RASN OVC007
      TEMPO 2614/2618 1/2SM SN OVC006
     FM261900 04010KT 2SM -SN OVC008=



000
FTUS41 KLWX 252100 AAA
TAFIAD
TAF AMD
KIAD 252100Z 2521/2624 20006KT P6SM OVC080
     FM252300 07003KT P6SM OVC040
     FM260400 10007KT 4SM -RASN SCT007 OVC025
     FM260900 08009KT 1SM -SN BKN007 OVC015
     FM261300 06009KT 1SM RASN OVC007
      TEMPO 2613/2617 1/2SM SN OVC005
     FM261700 04010KT 1SM -SN OVC008=



000
FTUS41 KLWX 252100 AAA
TAFDCA
TAF AMD
KDCA 252100Z 2521/2618 18009KT P6SM BKN090 OVC250
     FM252300 07005KT P6SM OVC040
     FM260400 09008KT 5SM -RA OVC030
     FM261000 07009KT 3SM RASN BKN008 OVC015
      TEMPO 2613/2617 1/2SM SN OVC006=



000
FTUS41 KLWX 251700 RRA
TAFDCA
TAF
KDCA 251741Z 2518/2618 28010G18KT P6SM OVC050
     FM252000 VRB05KT P6SM OVC040
     FM260400 09008KT 5SM -RA OVC030
     FM261000 07009KT 3SM RASN BKN008 OVC015
      TEMPO 2613/2617 1/2SM SN OVC006=



000
FTUS41 KLWX 251700 RRA
TAFCHO
TAF
KCHO 251741Z 2518/2618 20006KT P6SM BKN100
     FM252300 VRB04KT P6SM OVC040
     FM260700 VRB03KT 3SM -RA OVC025
     FM261400 08005KT 1SM -RASN OVC007=



000
FTUS41 KLWX 251700 RRA
TAFIAD
TAF
KIAD 251741Z 2518/2624 VRB05KT P6SM OVC035
     FM260400 10007KT 4SM -RASN SCT007 OVC025
     FM260900 08009KT 1SM -SN BKN007 OVC015
     FM261300 06009KT 1SM RASN OVC007
      TEMPO 2613/2617 1/2SM SN OVC005
     FM261700 04010KT 1SM -SN OVC008=



000
FTUS41 KLWX 251700 RRA
TAFMTN
TAF
KMTN 251741Z 2518/2618 26007KT P6SM OVC050
     FM252100 VRB05KT P6SM OVC040
     FM260200 09008KT 5SM -RASN OVC025
     FM260600 07009KT 3SM -SN BKN006 OVC015
      TEMPO 2614/2618 1/2SM SN OVC005=



000
FTUS41 KLWX 251700 RRA
TAFBWI
TAF
KBWI 251741Z 2518/2624 28009G15KT P6SM OVC050
     FM252000 VRB05KT P6SM OVC040
     FM260200 09008KT 5SM -RASN OVC030
     FM260800 07009KT 3SM -SN BKN007 OVC015
     FM261400 06009KT 1SM RASN OVC007
      TEMPO 2614/2618 1/2SM SN OVC006
     FM261900 04010KT 2SM -SN OVC008=



000
FTUS41 KLWX 251700 RRA
TAFMRB
TAF
KMRB 251741Z 2518/2618 22007KT P6SM OVC050
     FM252000 VRB03KT 5SM -RASN OVC040
     FM260500 VRB03KT 2SM -SN OVC007
     FM261000 04007KT 1/2SM SN OVC005=



000
FTUS41 KLWX 251400 AAB
TAFBWI
TAF AMD
KBWI 251458Z 2515/2618 25007KT P6SM OVC050
     FM252100 VRB05KT P6SM OVC040
     FM260200 05006KT P6SM -RASN OVC030
     FM260600 05009KT 3SM -SN BKN008 OVC025
     FM261000 06010KT 1/2SM SN OVC005=



000
FTUS41 KLWX 251400 AAB
TAFDCA
TAF AMD
KDCA 251454Z 2515/2612 25006KT P6SM OVC050
     FM252100 VRB05KT P6SM OVC035
     FM260400 05007KT 4SM -RA OVC030
     FM260900 06010KT 2SM -SN BKN007 OVC015
     FM261100 06009KT 1/2SM SN OVC004=



000
FTUS41 KLWX 251400 AAB
TAFIAD
TAF AMD
KIAD 251451Z 2515/2618 22007KT P6SM OVC040
     FM252000 VRB05KT P6SM OVC035
     FM260300 05007KT 4SM -RASN SCT007 OVC030
     FM260700 06010KT 1SM -SN BKN007 OVC015
     FM261000 06009KT 1/2SM SN OVC005=



000
FTUS41 KLWX 251200 AAA
TAFMTN
TAF AMD
KMTN 251223Z 2512/2612 26005KT P6SM OVC040
     FM252200 00000KT P6SM OVC090
     FM260100 00000KT P6SM -SN OVC050
     FM260300 VRB03KT 3SM -SN OVC050
     FM260800 VRB03KT 1SM -SN OVC010
     FM261100 06008KT 1/2SM SN OVC008=



000
FTUS41 KLWX 251200 AAA
TAFBWI
TAF AMD
KBWI 251222Z 2512/2618 26005KT P6SM BKN040 OVC200
     FM252000 32005KT P6SM BKN250
     FM252300 03005KT P6SM OVC090
     FM260100 05005KT P6SM -SN OVC050
     FM260300 05006KT 5SM -SN OVC050
     FM260500 05008KT 3SM -SN OVC050
     FM260800 05010KT 1SM -SN OVC015
     FM261100 06010KT 1/2SM SN OVC008=



000
FTUS41 KLWX 251200 AAA
TAFMRB
TAF AMD
KMRB 251222Z 2512/2612 20006KT P6SM BKN035 OVC050
     FM251700 33007KT P6SM OVC050
     FM252000 VRB03KT P6SM OVC050
     FM252300 VRB03KT 2SM -SN OVC030
     FM261100 05007KT 1/2SM SN OVC005=



000
FTUS41 KLWX 251200 AAA
TAFIAD
TAF AMD
KIAD 251221Z 2512/2618 23005KT P6SM BKN040 OVC200
     FM251500 29006KT P6SM OVC040
     FM260100 05005KT P6SM -SN OVC050
     FM260300 05005KT 5SM -SN OVC050
     FM260800 06009KT 1SM -SN OVC015
     FM261100 06009KT 1/2SM SN OVC005=



000
FTUS41 KLWX 251200 AAA
TAFDCA
TAF AMD
KDCA 251221Z 2512/2612 VRB05KT P6SM BKN050 OVC200
     FM251700 31005KT P6SM OVC040
     FM260200 04007KT P6SM OVC090
     FM260300 05007KT P6SM -SN OVC030
     FM260500 05007KT 3SM -SN OVC020
     FM260800 05011KT 2SM -SN OVC010=



000
FTUS41 KLWX 251100
TAFBWI
TAF
KBWI 251132Z 2512/2618 26005KT P6SM SCT250
     FM252000 32005KT P6SM BKN250
     FM252300 03005KT P6SM OVC090
     FM260100 05005KT P6SM -SN OVC050
     FM260300 05006KT 5SM -SN OVC050
     FM260500 05008KT 3SM -SN OVC050
     FM260800 05010KT 1SM -SN OVC015
     FM261100 06010KT 1/2SM SN OVC008=



000
FTUS41 KLWX 251100
TAFDCA
TAF
KDCA 251132Z 2512/2612 25004KT P6SM SCT250
     FM251700 31005KT P6SM BKN250
     FM260200 04007KT P6SM OVC090
     FM260300 05007KT P6SM -SN OVC030
     FM260500 05007KT 3SM -SN OVC020
     FM260800 05011KT 2SM -SN OVC010=



000
FTUS41 KLWX 251100
TAFIAD
TAF
KIAD 251132Z 2512/2618 23005KT P6SM BKN090
     FM251500 29006KT P6SM BKN250
     FM252100 00000KT P6SM OVC090
     FM260100 05005KT P6SM -SN OVC050
     FM260300 05005KT 5SM -SN OVC050
     FM260800 06009KT 1SM -SN OVC015
     FM261100 06009KT 1/2SM SN OVC005=



000
FTUS41 KLWX 251100
TAFMRB
TAF
KMRB 251132Z 2512/2612 25007KT P6SM BKN050
     FM251700 33007KT P6SM OVC050
     FM252000 VRB03KT P6SM OVC050
     FM252300 VRB03KT 2SM -SN OVC030
     FM261100 05007KT 1/2SM SN OVC005=



000
FTUS41 KLWX 251100
TAFCHO
TAF
KCHO 251132Z 2512/2612 20004KT P6SM BKN250
     FM260000 00000KT P6SM OVC090
     FM260500 VRB03KT 3SM -RASN OVC050
     FM260800 08005KT 1SM -RASN OVC025=



000
FTUS41 KLWX 251100
TAFMTN
TAF
KMTN 251132Z 2512/2612 26005KT P6SM SCT250
     FM251500 29009KT P6SM BKN250
     FM252200 00000KT P6SM OVC090
     FM260100 00000KT P6SM -SN OVC050
     FM260300 VRB03KT 3SM -SN OVC050
     FM260800 VRB03KT 1SM -SN OVC010
     FM261100 06008KT 1/2SM SN OVC008=



000
FTUS41 KLWX 250900 AAA
TAFIAD
TAF AMD
KIAD 250904Z 2509/2612 00000KT P6SM OVC045
     FM252100 00000KT P6SM OVC090
     FM260100 05005KT 6SM -SN OVC050
     FM260600 08007KT 6SM -SN OVC015
     FM260900 05009KT 6SM -SN OVC008=



000
FTUS41 KLWX 250900 AAA
TAFCHO
TAF AMD
KCHO 250904Z 2509/2606 VRB04KT P6SM SKC
     FM251700 18007KT P6SM BKN250
     FM252300 VRB03KT P6SM OVC250
     FM260500 VRB03KT 6SM -RASN OVC050=



000
FTUS41 KLWX 250900 AAA
TAFBWI
TAF AMD
KBWI 250904Z 2509/2612 21005KT P6SM BKN050
     FM252100 34005KT P6SM OVC090
     FM260000 05005KT P6SM OVC050
     FM260100 05005KT 6SM -SN OVC050
     FM260600 05009KT 6SM -SN OVC015
     FM260900 05010KT 6SM -SN OVC008=



000
FTUS41 KLWX 250900 AAA
TAFMTN
TAF AMD
KMTN 250904Z 2509/2606 NIL=



000
FTUS41 KLWX 250900 AAA
TAFMRB
TAF AMD
KMRB 250904Z 2509/2606 24007KT P6SM OVC040
     FM251700 33007KT P6SM OVC050
     FM252000 VRB03KT P6SM OVC050
     FM252300 VRB03KT 6SM -SN OVC050
     FM260000 VRB03KT 6SM -SN OVC015=



000
FTUS41 KLWX 250900 AAA
TAFDCA
TAF AMD
KDCA 250904Z 2509/2606 25004KT P6SM FEW140 BKN200
     FM252100 00000KT P6SM OVC090
     FM260000 04006KT P6SM OVC090
     FM260300 05007KT 6SM -SN OVC090=



000
FTUS41 KLWX 250500
TAFIAD
TAF
KIAD 250529Z 2506/2612 00000KT P6SM BKN035 OVC060
     FM251000 26006KT P6SM BKN250
     FM252000 20004KT P6SM BKN130
     FM252300 14004KT P6SM OVC090
     FM260200 09004KT 5SM -RASN OVC050
     FM260500 08007KT 3SM -RASN OVC050
     FM260800 07010KT 1SM -SN OVC015
     FM261100 06010KT 1/2SM SN OVC005=



000
FTUS41 KLWX 250500
TAFMTN
TAF
KMTN 250529Z 2506/2606 NIL=



000
FTUS41 KLWX 250500
TAFMRB
TAF
KMRB 250529Z 2506/2606 28016KT P6SM BKN030 OVC060
     FM251100 25006KT P6SM BKN250
     FM252300 VRB03KT 2SM -SNRA OVC050
     FM260200 07005KT 2SM -SN OVC015=



000
FTUS41 KLWX 250500
TAFBWI
TAF
KBWI 250529Z 2506/2612 28012KT P6SM FEW035 BKN070 OVC250
     FM250900 27006KT P6SM SCT250
     FM252100 VRB03KT P6SM OVC090
     FM260200 07005KT 5SM -RASN OVC050
     FM260500 07010KT 3SM -SNRA OVC050
     FM260800 07012KT 1SM -SN OVC005=



000
FTUS41 KLWX 250500
TAFDCA
TAF
KDCA 250529Z 2506/2606 29008G16KT P6SM OVC060
     FM252000 21004KT P6SM BKN250
     FM260100 10004KT P6SM OVC090
     FM260200 09004KT P6SM -RA OVC090
     FM260500 08008KT 3SM -RASN OVC090=



000
FTUS41 KLWX 250500
TAFCHO
TAF
KCHO 250529Z 2506/2606 21003KT P6SM OVC050
     FM251900 21005KT P6SM BKN250
     FM252300 14004KT P6SM BKN250
     FM260200 VRB03KT P6SM -RA OVC090
     FM260500 VRB03KT 3SM -RASN OVC050=



000
FTUS41 KLWX 242300
TAFMTN
TAF
KMTN 242320Z 2500/2524 29011KT P6SM SCT090
     FM250700 27006KT P6SM SCT250
     FM252100 VRB03KT P6SM BKN090
     FM252300 10004KT P6SM -SN OVC090
      AMD NOT SKED 2502/2512=



000
FTUS41 KLWX 242300
TAFMRB
TAF
KMRB 242320Z 2500/2524 29010KT P6SM SCT250
     FM251100 25006KT P6SM BKN250
     FM252300 VRB03KT 2SM -SNRA OVC050=



000
FTUS41 KLWX 242300
TAFBWI
TAF
KBWI 242320Z 2500/2606 29012KT P6SM SCT090
     FM250600 27008KT P6SM SCT250
     FM252000 27004KT P6SM BKN250
     FM252300 07004KT P6SM OVC090
     FM260200 07005KT 5SM -RASN OVC050
     FM260500 07010KT 3SM -SNRA OVC050=



000
FTUS41 KLWX 242300
TAFCHO
TAF
KCHO 242320Z 2500/2524 27007KT P6SM SCT250
     FM251900 21005KT P6SM BKN250
     FM252300 14004KT P6SM BKN250=



000
FTUS41 KLWX 242300
TAFDCA
TAF
KDCA 242320Z 2500/2524 30011KT P6SM SCT250
     FM250500 28007KT P6SM SCT250
     FM252000 21004KT P6SM BKN250=



000
FTUS41 KLWX 242300
TAFIAD
TAF
KIAD 242320Z 2500/2606 30009KT P6SM SCT250
     FM251100 25005KT P6SM SCT250
     FM251200 25005KT P6SM BKN090
     FM252300 14004KT P6SM OVC090
     FM260200 09004KT 5SM -RASN OVC050
     FM260500 08007KT 3SM -RASN OVC050=



000
FTUS41 KLWX 242000 AAA
TAFMTN
TAF AMD
KMTN 242057Z 2421/2518 29011KT P6SM BKN070
     FM242200 29012KT P6SM SCT090
     FM250500 26008KT P6SM SCT250=



000
FTUS41 KLWX 242000 AAA
TAFIAD
TAF AMD
KIAD 242057Z 2421/2524 30010G20KT P6SM SCT090
     FM250100 29009KT P6SM SCT250
     FM250500 26005KT P6SM SCT250
     FM251200 25005KT P6SM BKN090
     FM252300 14004KT P6SM OVC090=



000
FTUS41 KLWX 242000 AAA
TAFDCA
TAF AMD
KDCA 242057Z 2421/2518 30010G19KT P6SM BKN060
     FM242200 30011KT P6SM SCT080
     FM250500 26007KT P6SM SCT250=



000
FTUS41 KLWX 242000 AAA
TAFBWI
TAF AMD
KBWI 242057Z 2421/2524 29011G19KT P6SM BKN070
     FM242200 29012G20KT P6SM SCT090
     FM250400 28008KT P6SM SCT250
     FM252000 27004KT P6SM BKN250
     FM252300 07004KT P6SM OVC090=



000
FTUS41 KLWX 242000 AAA
TAFMRB
TAF AMD
KMRB 242007Z 2420/2518 31013G20KT P6SM SCT025 SCT250
     FM250200 28008KT P6SM SCT250
     FM251000 VRB04KT 5SM BR SCT030 BKN150=



000
FTUS41 KLWX 241700
TAFMRB
TAF
KMRB 241739Z 2418/2518 31010KT P6SM SCT025 OVC045
     FM250200 28008KT P6SM SCT250
     FM251000 VRB04KT 5SM BR SCT030 BKN150=



000
FTUS41 KLWX 241700
TAFDCA
TAF
KDCA 241739Z 2418/2518 32011G18KT P6SM BKN010 OVC035
      TEMPO 2418/2420 5SM -RA
     FM242000 30010G18KT P6SM SCT025 BKN120
     FM250200 28007KT P6SM SCT250
     FM250800 24005KT P6SM BKN150=



000
FTUS41 KLWX 241700
TAFCHO
TAF
KCHO 241739Z 2418/2518 30005KT P6SM BKN035 OVC080
     FM250200 VRB04KT P6SM SCT250
     FM251000 VRB03KT 5SM BR SCT030 BKN150=



000
FTUS41 KLWX 241700
TAFBWI
TAF
KBWI 241739Z 2418/2524 31009G16KT P6SM BKN012 OVC040
      TEMPO 2418/2421 5SM -RA OVC009
     FM242100 30011G18KT P6SM SCT025 BKN120
     FM250300 27007KT P6SM SCT250
     FM251900 VRB04KT P6SM SCT030 BKN100=



000
FTUS41 KLWX 241700
TAFIAD
TAF
KIAD 241739Z 2418/2524 31012G18KT 5SM BR OVC020
      TEMPO 2418/2420 3SM -SNRA OVC008
     FM242000 30010KT P6SM SCT025 BKN120
     FM250200 28007KT P6SM SCT250
     FM250800 24005KT P6SM BKN150
     FM252000 VRB04KT P6SM SCT030 BKN100=



000
FTUS41 KLWX 241700
TAFMTN
TAF
KMTN 241739Z 2418/2518 31010G16KT P6SM BKN012 OVC040
      TEMPO 2418/2421 4SM -RA OVC009
     FM242100 30011G18KT P6SM SCT025 BKN120
     FM250200 27006KT P6SM SCT250=



000
FTUS41 KLWX 241500 AAA
TAFMTN
TAF AMD
KMTN 241542Z 2416/2512 34006KT 3SM -DZ OVC008
     FM241800 31011KT P6SM BKN025
     FM242200 29012KT P6SM SCT025
     FM250000 29012KT P6SM FEW250
     FM250500 26008KT P6SM SCT250=



000
FTUS41 KLWX 241500 AAA
TAFMTN
TAF AMD
KMTN 241542Z 2416/2512 34006KT 3SM -DZ OVC008
     FM241800 31011KT P6SM BKN025
     FM242200 29012KT P6SM SCT025
     FM250000 29012KT P6SM FEW250
     FM250500 26008KT P6SM SCT250=



000
FTUS41 KLWX 241400 AAA
TAFBWI
TAF AMD
KBWI 241458Z 2415/2518 34009KT 5SM BR OVC012
      TEMPO 2415/2418 3SM -RASN OVC006
     FM241800 31011KT P6SM OVC050
     FM242000 29012KT P6SM BKN090
     FM242200 29012KT P6SM SCT090
     FM250400 27008KT P6SM SCT250=



000
FTUS41 KLWX 241400 AAA
TAFDCA
TAF AMD
KDCA 241436Z 2415/2512 34010KT 4SM -DZ OVC008
      TEMPO 2415/2418 2SM -RASN
     FM241900 31011KT P6SM OVC050
     FM242000 29012KT P6SM BKN250
     FM250400 27008KT P6SM SCT250=



000
FTUS41 KLWX 241400 AAA
TAFIAD
TAF AMD
KIAD 241431Z 2415/2518 35009KT 4SM BR OVC005
      TEMPO 2415/2417 2SM -RASN BR
     FM241800 31010KT P6SM OVC015
     FM242000 30012G20KT P6SM BKN250
     FM250000 29008KT P6SM FEW250=



000
FTUS41 KLWX 241100
TAFIAD
TAF
KIAD 241121Z 2412/2518 35009KT 2SM -RASN OVC003
     FM241700 31009KT 2SM -SN OVC005
     FM241800 30010KT P6SM OVC015
     FM242000 30012G20KT P6SM BKN250
     FM250000 29008KT P6SM FEW250=



000
FTUS41 KLWX 241100
TAFDCA
TAF
KDCA 241121Z 2412/2512 36011KT 3SM -RAPL OVC003
     FM241400 34010KT 2SM -RASN OVC008
     FM241600 33010KT 1SM -RASN OVC020
     FM241800 31011KT 2SM -RASN OVC050
     FM242000 29012KT P6SM BKN250
     FM250400 27008KT P6SM SCT250=



000
FTUS41 KLWX 241100
TAFBWI
TAF
KBWI 241121Z 2412/2518 35010KT 3SM -RAPL OVC005
     FM241400 34009KT 2SM -RASN OVC010
     FM241600 33010KT 1SM -RASN OVC015
     FM241800 31011KT 2SM -SNRA OVC050
     FM242000 29012KT P6SM BKN090
     FM242200 29012KT P6SM SCT090
     FM250400 27008KT P6SM SCT250=



000
FTUS41 KLWX 241100
TAFMRB
TAF
KMRB 241121Z 2412/2512 35005KT 2SM -SN OVC008
     FM241600 32006KT P6SM OVC025
     FM241700 30007KT P6SM OVC035
     FM242100 29011KT P6SM SCT250
     FM250800 28007KT P6SM SCT250=



000
FTUS41 KLWX 241100
TAFCHO
TAF
KCHO 241121Z 2412/2512 VRB03KT P6SM -RAPL OVC005
     FM241800 31005KT P6SM OVC150
     FM250500 25004KT P6SM SCT250=



000
FTUS41 KLWX 241100
TAFMTN
TAF
KMTN 241121Z 2412/2512 36010KT 2SM -RA OVC005
     FM241400 35010KT 2SM -RASN OVC010
     FM241500 34010KT 1SM -RASN OVC015
     FM241800 31011KT 2SM -SNRA OVC050
     FM242000 29011KT P6SM BKN025
     FM242200 29012KT P6SM SCT025
     FM250000 29012KT P6SM FEW250
     FM250500 26008KT P6SM SCT250=



000
FTUS41 KLWX 240800 AAA
TAFMRB
TAF AMD
KMRB 240837Z 2409/2506 36004KT 3SM -RAPL OVC004
     FM241600 32006KT P6SM OVC008
     FM241700 30007KT P6SM OVC015
     FM241900 29009KT P6SM BKN025
     FM242000 29010KT P6SM BKN120=



000
FTUS41 KLWX 240800 AAA
TAFDCA
TAF AMD
KDCA 240837Z 2409/2506 02007KT 3SM -RA OVC008
     FM241200 36011KT 3SM -RAPL OVC008
     FM241800 31011KT 2SM -RASN OVC008
     FM242000 29012KT P6SM BKN025
     FM242100 29012G20KT P6SM BKN070
     FM242200 29012KT P6SM SCT130
     FM250400 27008KT P6SM SCT250=



000
FTUS41 KLWX 240800 AAA
TAFIAD
TAF AMD
KIAD 240837Z 2409/2512 36006KT 2SM -RASN OVC008
     FM241400 34008KT 2SM -RASN OVC003
     FM241700 31009KT 2SM -RASN OVC008
     FM241800 30010KT P6SM OVC010
     FM242000 30012G20KT P6SM BKN060
     FM242100 30013G21KT P6SM SCT110
     FM250000 29008KT P6SM FEW250=



000
FTUS41 KLWX 240800 AAA
TAFMTN
TAF AMD
KMTN 240837Z 2409/2506 NIL=



000
FTUS41 KLWX 240800 AAA
TAFCHO
TAF AMD
KCHO 240837Z 2409/2506 35004KT 2SM -RASN OVC003
     FM241200 VRB03KT 3SM BR OVC003
     FM241600 31005KT P6SM OVC008
     FM241800 29007KT P6SM OVC025
     FM241900 29008KT P6SM BKN035
     FM242000 29008KT P6SM SCT140
     FM250400 26004KT P6SM SCT250=



000
FTUS41 KLWX 240800 AAA
TAFBWI
TAF AMD
KBWI 240837Z 2409/2512 02007KT 2SM -RAPL OVC003
     FM241000 02008KT 6SM -SNPL OVC008
     FM241200 35010KT 3SM -PLSNRA OVC008
     FM241400 34009KT 2SM -SNRA OVC008
     FM242000 29012KT P6SM BKN025
     FM242200 29012KT P6SM SCT120
     FM250400 27008KT P6SM SCT250=



000
FTUS41 KLWX 240500
TAFMTN
TAF
KMTN 240537Z 2406/2506 NIL=



000
FTUS41 KLWX 240500
TAFDCA
TAF
KDCA 240537Z 2406/2506 04009KT 2SM RA BKN006 OVC014
     FM240800 02007KT 2SM -RA OVC005
     FM240900 02007KT 3SM -RAPL OVC008
     FM241200 36011KT 3SM -RAPLSN OVC008
     FM241400 34010KT 2SM -RASN OVC003
     FM242000 29012KT P6SM BKN025
     FM242200 29012KT P6SM SCT130
     FM250400 27008KT P6SM SCT250=



000
FTUS41 KLWX 240500
TAFMRB
TAF
KMRB 240537Z 2406/2506 02003KT 1SM RAPL BR OVC014
     FM240900 36004KT 1SM -SN OVC008
     FM241600 32006KT P6SM OVC008
     FM241700 30007KT P6SM OVC015
     FM241900 29009KT P6SM BKN025
     FM242000 29010KT P6SM BKN120=



000
FTUS41 KLWX 240500
TAFIAD
TAF
KIAD 240537Z 2406/2512 35003KT 1 1/2SM RAPL BR BKN004 OVC022
     FM240900 36006KT 2SM -SN OVC004
     FM241400 34008KT 2SM -RASN OVC003
     FM241700 31009KT 2SM -RASN OVC008
     FM241800 30010KT P6SM OVC010
     FM242000 30012G20KT P6SM BKN060
     FM242100 30013G21KT P6SM SCT110
     FM250000 29008KT P6SM FEW250=



000
FTUS41 KLWX 240500
TAFCHO
TAF
KCHO 240537Z 2406/2506 00000KT 2SM -RA BR SCT002 OVC030
     FM240700 01004KT 2SM -PLRA OVC003
     FM241200 VRB03KT P6SM OVC003
     FM241400 32004KT 1/4SM +RASN OVC003
     FM241600 31005KT P6SM OVC008
     FM242000 29008KT P6SM SCT140
     FM250400 26004KT P6SM SCT250=



000
FTUS41 KLWX 240500
TAFBWI
TAF
KBWI 240537Z 2406/2512 05006KT 1 1/2SM RAPL BR OVC003
     FM240900 02007KT 6SM -SNPL OVC003
     FM241000 02008KT 6SM -SNPL OVC008
     FM241200 35010KT 3SM -PLSNRA OVC008
     FM241400 34009KT 2SM -SNRA OVC008
     FM241600 33010KT 1SM -RASN OVC003
     FM241800 31011KT 2SM -SNRA OVC008
     FM242000 29012KT P6SM BKN025
     FM242200 29012KT P6SM SCT120
     FM250400 27008KT P6SM SCT250=



000
FTUS41 KLWX 240400 AAA
TAFCHO
TAF AMD
KCHO 240400Z 2404/2424 VRB03KT 2SM -FZRAPL OVC003
     FM240700 01004KT 2SM -RAPL OVC003
     FM241200 VRB03KT P6SM -RASN OVC003
     FM241600 31005KT P6SM OVC008
     FM242000 29008KT P6SM SCT140=



000
FTUS41 KLWX 240200 AAA
TAFBWI
TAF AMD
KBWI 240225Z 2402/2506 13005KT 3SM -PLRA OVC015
     FM240400 04006KT 2SM -FZRAPL OVC008
     FM240900 02007KT 2SM -SNPL OVC003
     FM241600 33010G18KT 3SM -RASN OVC006
     FM242000 29012G20KT P6SM BKN025
     FM242200 29012G22KT P6SM SCT120
     FM250400 27008KT P6SM SCT250=



000
FTUS41 KLWX 240200 AAA
TAFIAD
TAF AMD
KIAD 240224Z 2402/2506 VRB04KT 4SM -RAPL OVC008
     FM240600 36006KT 2SM -SNPL OVC006
     FM241400 34008KT 2SM -RASN OVC003
     FM241800 30010G18KT P6SM OVC012
     FM242000 30012G20KT P6SM BKN060
     FM250000 29008KT P6SM FEW250=



000
FTUS41 KLWX 240200 AAA
TAFDCA
TAF AMD
KDCA 240224Z 2402/2424 VRB04KT 3SM -RA OVC008
     FM240900 02007KT 3SM -RAPL OVC006
     FM241200 36011KT 3SM -SNPLRA OVC008
     FM241400 34010KT 2SM -RASN OVC006
     FM242000 29012G20KT P6SM BKN025
     FM242200 29012G22KT P6SM SCT130=



000
FTUS41 KLWX 232300 RRA
TAFCHO
TAF
KCHO 232341Z 2400/2424 00000KT 3SM -RAPL OVC018
     FM240200 VRB03KT 2SM -RAPL OVC008
     FM240700 01004KT 2SM -RAPL OVC003
     FM241200 VRB03KT P6SM -RASN OVC003
     FM241600 31005KT P6SM OVC008
     FM242000 29008KT P6SM SCT140=



000
FTUS41 KLWX 232300 RRA
TAFMTN
TAF
KMTN 232341Z 2400/2424 VRB03KT P6SM -RAPL OVC050
     FM240200 14004KT 3SM -RAPL OVC025
     FM240600 06005KT 2SM -FZRAPLSN OVC012
     FM240700 05006KT 2SM -FZRAPLSN OVC008
     FM241100 01009KT 2SM -SN OVC008
     FM241400 35010KT 2SM -RASN OVC008
     FM242000 29011KT P6SM BKN015
     FM242200 29012KT P6SM SCT110
      AMD NOT SKED 2402/2412=



000
FTUS41 KLWX 232300 RRA
TAFIAD
TAF
KIAD 232341Z 2400/2506 14004KT 3SM -SNPL OVC025
     FM240400 06005KT 4SM -RAPL OVC012
     FM240600 36006KT 2SM -SN OVC008
     FM241400 34008KT 2SM -RASN OVC003
     FM241700 31009KT 4SM -RASN OVC008
     FM241800 30010G18KT P6SM OVC012
     FM242000 30012G20KT P6SM BKN060
     FM250000 29008KT P6SM FEW250=



000
FTUS41 KLWX 232300 RRA
TAFMRB
TAF
KMRB 232341Z 2400/2424 VRB03KT 3SM -SNRAPL OVC025
     FM240300 VRB03KT 3SM -RASNPL OVC008
     FM240600 00000KT 2SM -FZRASNPL OVC008
     FM240900 36004KT 3/4SM -SN OVC008
     FM241400 32006KT P6SM OVC008
     FM241700 30007KT P6SM OVC015
     FM242000 29010KT P6SM BKN120=



000
FTUS41 KLWX 232300 RRA
TAFDCA
TAF
KDCA 232341Z 2400/2424 14004KT 5SM -PLRA OVC025
     FM240200 11005KT 3SM -RAPL OVC015
     FM240400 06006KT 3SM -RA OVC008
     FM240900 02007KT 3SM -RAPL OVC008
     FM241200 36011KT 3SM -SNPLRA OVC008
     FM241400 34010KT 2SM -RASN OVC006
     FM242000 29012G20KT P6SM BKN025
     FM242200 29012G22KT P6SM SCT130=



000
FTUS41 KLWX 232300 RRA
TAFBWI
TAF
KBWI 232341Z 2400/2506 15004KT 6SM -PLSNRA OVC030
     FM240200 13005KT 3SM -PLSNRA OVC015
     FM240500 04006KT 2SM -FZRAPL OVC008
     FM240900 02007KT 2SM -SNPL OVC003
     FM241600 33010G18KT 1SM -RASN OVC003
     FM242000 29012G20KT P6SM BKN025
     FM242200 29012G22KT P6SM SCT120
     FM250400 27008KT P6SM SCT250=



000
FTUS41 KLWX 232100 AAB
TAFIAD
TAF AMD
KIAD 232157Z 2322/2424 17005KT 3SM -SNPL OVC040
     FM232300 15004KT 3SM -RASN OVC030
     FM240200 14004KT 2SM -RASNPL OVC015
     FM240500 06005KT 2SM -FZRAPL OVC008
     FM241400 34008KT 2SM -RASN OVC003
     FM241600 32008KT P6SM OVC010
     FM241900 30012G20KT P6SM BKN025=



000
FTUS41 KLWX 232100 AAB
TAFIAD
TAF AMD
KIAD 232157Z 2322/2424 17005KT 3SM -SNPL OVC040
     FM232300 15004KT 3SM -RASN OVC030
     FM240200 14004KT 2SM -RASNPL OVC015
     FM240500 06005KT 2SM -FZRAPL OVC008
     FM241400 34008KT 2SM -RASN OVC003
     FM241600 32008KT P6SM OVC010
     FM241900 30012G20KT P6SM BKN025=



000
FTUS41 KLWX 232000 AAA
TAFBWI
TAF AMD
KBWI 232057Z 2321/2424 16004KT P6SM BKN150
     FM232200 15005KT P6SM -RAPL OVC050
     FM240000 14005KT 3SM -RASN OVC025
     FM240500 06005KT 2SM -RAPLSN OVC008
     FM240800 03006KT 2SM -RAPL OVC008
     FM241400 34009KT 2SM -RASN SCT003 OVC008
     FM241600 33009KT P6SM OVC010
     FM242000 29012KT P6SM BKN015=



000
FTUS41 KLWX 232000 AAA
TAFDCA
TAF AMD
KDCA 232056Z 2321/2418 17004KT P6SM -RAPL OVC060
     FM232300 14004KT 5SM -RA OVC030
     FM240100 13004KT 3SM -RAPL OVC015
     FM240400 09005KT 2SM -RAPL BKN008 OVC012
     FM241400 34009KT 2SM -RA SCT003 OVC008
     FM241600 33009KT P6SM OVC010=



000
FTUS41 KLWX 232000 AAA
TAFIAD
TAF AMD
KIAD 232055Z 2321/2424 17005KT P6SM -SNPL OVC060
     FM232300 15004KT 3SM -RASN OVC030
     FM240200 14004KT 2SM -RASNPL OVC015
     FM240500 06005KT 2SM -FZRAPL OVC008
     FM241400 34008KT 2SM -RASN OVC003
     FM241600 32008KT P6SM OVC010
     FM241900 30012G20KT P6SM BKN025=



000
FTUS41 KLWX 231700 RRA
TAFBWI
TAF
KBWI 231749Z 2318/2424 16004KT P6SM SCT150
     FM232200 15005KT P6SM OVC080
     FM240100 14005KT 3SM -RASN OVC025
     FM240500 06005KT 2SM -FZRAPLSN OVC008
     FM240800 03006KT 2SM -FZRA OVC008
     FM241400 34009KT 2SM -RASN SCT003 OVC008
     FM241600 33009KT P6SM OVC010
     FM242000 29012KT P6SM BKN015=



000
FTUS41 KLWX 231700 RRA
TAFCHO
TAF
KCHO 231749Z 2318/2418 18005KT P6SM OVC060
     FM232000 17005KT P6SM -RAPL OVC050
     FM232300 00000KT 2SM -RASNPL OVC015
     FM240100 00000KT 1SM -RAPL OVC008
     FM240500 02004KT 1SM -FZRA BKN003 OVC008
     FM241100 34004KT 3SM -RA SCT003 OVC008
     FM241400 VRB03KT P6SM OVC020
     FM241700 30006KT P6SM OVC050=



000
FTUS41 KLWX 231700 RRA
TAFMTN
TAF
KMTN 231749Z 2318/2418 17004KT P6SM SCT200
     FM232300 15004KT P6SM OVC060
     FM240100 VRB03KT 3SM -RASN BKN020 OVC025
     FM240300 14004KT 2SM -SNPL OVC015
     FM240500 08005KT 1SM -FZRASNPL BKN008 OVC010
     FM241400 35010KT 2SM -RASN SCT003 OVC008
     FM241600 33010KT P6SM OVC010=



000
FTUS41 KLWX 231700 RRA
TAFIAD
TAF
KIAD 231749Z 2318/2424 17005KT P6SM BKN120
     FM232300 15004KT 3SM -RASN OVC020
     FM240200 14004KT 2SM -RASNPL OVC015
     FM240500 06005KT 2SM -FZRAPL OVC008
     FM241400 34008KT 2SM -RASN OVC003
     FM241600 32008KT P6SM OVC010
     FM241900 30011KT P6SM BKN025=



000
FTUS41 KLWX 231700 RRA
TAFMRB
TAF
KMRB 231749Z 2318/2418 16005KT P6SM BKN100
     FM232100 14004KT P6SM OVC015
     FM240000 14004KT 2SM -RASNPL OVC015
     FM240200 VRB03KT 1SM -SNPL BKN010 OVC015
     FM240500 VRB03KT 1SM -FZRASNPL BKN003 OVC008
     FM241400 33005KT P6SM SCT003 OVC008
     FM241600 32006KT P6SM OVC040=



000
FTUS41 KLWX 231700 RRA
TAFDCA
TAF
KDCA 231749Z 2318/2418 17004KT P6SM BKN130
     FM232300 14004KT 5SM -RA OVC050
     FM240100 13004KT 3SM -RAPL OVC025
     FM240400 09005KT 2SM -RAPL BKN008 OVC015
     FM241100 36009KT 3SM -FZRAPL SCT003 OVC008
     FM241400 34009KT 2SM -RA SCT003 OVC008
     FM241600 33009KT P6SM OVC010=



000
FTUS41 KLWX 231500 AAA
TAFCHO
TAF AMD
KCHO 231510Z 2315/2412 00000KT P6SM OVC100
     FM231900 18005KT P6SM -FZRAPL OVC060
     FM232100 17005KT 4SM -FZRAPL BR BKN015 OVC025
     FM240100 00000KT 2SM -FZRA BR BKN009 OVC020
     FM240500 VRB03KT 2SM -RA BR BKN006 OVC020
     FM241000 01004KT 4SM -RA BR BKN003 OVC008=



000
FTUS41 KLWX 231500 AAA
TAFMRB
TAF AMD
KMRB 231510Z 2315/2412 VRB03KT P6SM SCT250
     FM231900 17006KT P6SM BKN035
     FM232100 16006KT P6SM SCT010 OVC025
     FM232300 15006KT 5SM -FZRAPLSN BKN012 OVC025
     FM240200 15004KT 4SM -FZRASNPL BR BKN008 OVC020
     FM240500 VRB03KT 1SM -SNPL BR BKN003 OVC020
     FM240800 00000KT 2SM -FZRA BR OVC003=



000
FTUS41 KLWX 231500 AAA
TAFMTN
TAF AMD
KMTN 231510Z 2315/2412 VRB03KT P6SM SCT100 BKN250
     FM232300 16004KT P6SM SCT025 OVC090
     FM240000 16004KT P6SM -SN SCT020 OVC080
     FM240200 VRB03KT 5SM -SNPL BR SCT020 OVC025
     FM240400 VRB03KT 4SM -SNPL BR BKN010 OVC020
     FM240800 VRB03KT 2SM -RA BR BKN008 OVC020
     FM241100 02007KT 3SM -FZRA BR SCT003 OVC008=



000
FTUS41 KLWX 231500 AAA
TAFIAD
TAF AMD
KIAD 231510Z 2315/2418 19006KT P6SM BKN100 OVC250
     FM232200 16006KT 6SM -FZRAPL SCT025 OVC045
     FM240200 13004KT 3SM -FZRASNPL BR BKN012 OVC025
     FM240800 03004KT 2SM -FZRA BR SCT003 OVC008
     FM241200 35008KT 4SM -FZRAPL BR SCT004 OVC007
     FM241400 34008KT P6SM SCT004 OVC009
     FM241600 32009G17KT P6SM SCT008 OVC015=



000
FTUS41 KLWX 231500 AAA
TAFBWI
TAF AMD
KBWI 231510Z 2315/2418 VRB04KT P6SM SCT120 OVC250
     FM232200 16005KT P6SM SCT025 OVC100
     FM240000 15005KT P6SM -FZRASNPL SCT020 OVC060
     FM240200 13004KT 5SM -SNPL BKN015 OVC020
     FM240500 07004KT 4SM -RAPL BR BKN009 OVC020
     FM240800 03005KT 2SM -FZRA BR SCT003 OVC008
     FM241100 01010KT 3SM -RA SCT003 OVC008
     FM241600 33010G18KT P6SM SCT008 OVC015=



000
FTUS41 KLWX 231500 AAA
TAFDCA
TAF AMD
KDCA 231510Z 2315/2412 18005KT P6SM OVC250
     FM232100 18006KT P6SM SCT025 OVC080
     FM232300 17006KT P6SM -FZRAPL SCT025 OVC060
     FM240200 13004KT 5SM -FZRASNPL BKN008 OVC020
     FM240600 07004KT 4SM -RA BR BKN008 OVC020
     FM241000 02007KT 5SM -RA BR SCT003 OVC008=



000
FTUS41 KLWX 231100
TAFBWI
TAF
KBWI 231135Z 2312/2418 VRB03KT P6SM SCT250
     FM232200 16005KT P6SM SCT025 OVC100
     FM240000 15005KT P6SM -FZRASNPL SCT020 OVC060
     FM240200 13004KT 5SM -SNPL BKN015 OVC020
     FM240500 07004KT 4SM -RAPL BR BKN009 OVC020
     FM240800 03005KT 2SM -FZRA BR SCT003 OVC008
     FM241100 01010KT 3SM -RA SCT003 OVC008
     FM241600 33010G18KT P6SM SCT008 OVC015=



000
FTUS41 KLWX 231100
TAFMTN
TAF
KMTN 231135Z 2312/2412 VRB03KT P6SM SCT250
     FM232300 16004KT P6SM SCT025 OVC090
     FM240000 16004KT P6SM -SN SCT020 OVC080
     FM240200 VRB03KT 5SM -SNPL BR SCT020 OVC025
     FM240400 VRB03KT 4SM -SNPL BR BKN010 OVC020
     FM240800 VRB03KT 2SM -RA BR BKN008 OVC020
     FM241100 02007KT 3SM -FZRA BR SCT003 OVC008=



000
FTUS41 KLWX 231100
TAFDCA
TAF
KDCA 231135Z 2312/2412 VRB03KT P6SM SCT250
     FM232100 18006KT P6SM SCT025 OVC080
     FM232300 17006KT P6SM -FZRAPL SCT025 OVC060
     FM240200 13004KT 5SM -FZRASNPL BKN008 OVC020
     FM240600 07004KT 4SM -RA BR BKN008 OVC020
     FM241000 02007KT 5SM -RA BR SCT003 OVC008=



000
FTUS41 KLWX 231100
TAFIAD
TAF
KIAD 231135Z 2312/2418 VRB03KT P6SM SCT250
     FM231800 18006KT P6SM BKN120
     FM232300 16006KT 6SM -FZRAPL SCT025 OVC045
     FM240200 13004KT 3SM -FZRASNPL BR BKN012 OVC025
     FM240800 03004KT 2SM -FZRA BR SCT003 OVC008
     FM241200 35008KT 4SM -FZRAPL BR SCT004 OVC007
     FM241400 34008KT P6SM SCT004 OVC009
     FM241600 32009G17KT P6SM SCT008 OVC015=



000
FTUS41 KLWX 231100
TAFMRB
TAF
KMRB 231135Z 2312/2412 VRB03KT P6SM SCT250
     FM231800 17006KT P6SM BKN035
     FM232100 16006KT P6SM SCT010 OVC025
     FM232300 15006KT 5SM -FZRAPLSN BKN012 OVC025
     FM240200 15004KT 4SM -FZRASNPL BR BKN008 OVC020
     FM240500 VRB03KT 1SM -SNPL BR BKN003 OVC020
     FM240800 00000KT 2SM -FZRA BR OVC003=



000
FTUS41 KLWX 231100
TAFCHO
TAF
KCHO 231135Z 2312/2412 00000KT P6SM BKN110
     FM231900 18005KT P6SM -FZRAPL OVC060
     FM232100 17005KT 4SM -FZRAPL BR BKN015 OVC025
     FM240100 00000KT 2SM -FZRA BR BKN009 OVC020
     FM240500 VRB03KT 2SM -RA BR BKN006 OVC020
     FM241000 01004KT 4SM -RA BR BKN003 OVC008=



000
FTUS41 KLWX 230900 AAA
TAFBWI
TAF AMD
KBWI 230903Z 2309/2412 VRB03KT P6SM SCT250
     FM231700 22004KT P6SM SCT250
     FM232300 15005KT P6SM -SNPL SCT025 OVC080
     FM240200 13004KT 4SM -SNRAPL BR BKN015 OVC020
     FM240800 07004KT 2SM -RAPL BR BKN008 OVC020
     FM241100 02007KT 5SM -FZRAPL BR SCT003 OVC008=



000
FTUS41 KLWX 230900 AAA
TAFDCA
TAF AMD
KDCA 230903Z 2309/2406 29004KT P6SM SCT250
     FM231700 16004KT P6SM SCT200
     FM232100 18006KT P6SM SCT025 OVC080
     FM232300 17006KT 5SM -RASNPL SCT025 OVC060
     FM240300 10004KT 3SM -RASNPL BR BKN008 OVC020
     FM240500 07004KT 4SM -RA BR BKN008 OVC020=



000
FTUS41 KLWX 230900 AAA
TAFIAD
TAF AMD
KIAD 230903Z 2309/2412 VRB03KT P6SM SCT250
     FM231700 17005KT P6SM SCT200
     FM232200 16006KT 6SM -RA SCT025 OVC045
     FM240200 13004KT 4SM -SNPL BR SCT009 OVC030
     FM240400 VRB03KT 2SM -SN BR BKN003 OVC020
     FM240800 03004KT 4SM -FZRAPL BR BKN003 OVC008
     FM241100 36006KT 5SM -SNPL BR SCT006 OVC010=



    US Dept of Commerce
    National Oceanic and Atmospheric Administration
    National Weather Service
    1325 East West Highway
    Silver Spring, MD 20910
    Page Author: NWS Internet Services Team
Disclaimer
Information Quality
Credits
Glossary
Privacy Policy
Freedom of Information Act (FOIA)
About Us
Career Opportunities